Time;durP1;ratioP1;P1;durP2;ratioP2;P2;SDS_P1;SDS_P2;PMS_P1;PMS_P2;Temp;Humidity;BMP_temperature;BMP_pressure;BME280_temperature;BME280_humidity;BME280_pressure;Samples;Min_cycle;Max_cycle;Signal;HPM_P1;HPM_P2
2021/10/02 00:37:23;;;;;;;;;;;;;;;;;;5049777;28;20491;-69
2021/10/02 00:45:19;;;;;;;;;;;;;;;;;;5050583;28;20063;-69
2021/10/02 00:47:46;;;;;;;;;;;;;;;;;;5070934;28;19925;-70
2021/10/02 00:50:13;;;;;;;;;;;;;;;;;;5065960;28;20392;-69
2021/10/02 00:52:41;;;;;;;;;;;;;;;;;;5072852;28;20418;-69
2021/10/02 00:55:08;;;;;;;;;;;;;;;;;;5058628;28;20347;-69
2021/10/02 00:57:35;;;;;;;;;;;;;;;;;;5064740;28;19929;-69
2021/10/02 01:00:02;;;;;;;;;;;;;;;;;;5055289;28;20312;-69
2021/10/02 01:02:29;;;;;;;;;;;;;;;;;;5055651;28;20431;-69
2021/10/02 01:04:56;;;;;;;;;;;;;;;;;;5055027;28;19931;-69
2021/10/02 01:07:24;;;;;;;;;;;;;;;;;;5053225;28;19982;-69
2021/10/02 01:09:51;;;;;;;;;;;;;;;;;;5058224;28;20347;-69
2021/10/02 01:12:18;;;;;;;;;;;;;;;;;;5054227;28;20385;-69
2021/10/02 01:14:45;;;;;;;;;;;;;;;;;;5062003;28;19930;-69
2021/10/02 01:17:12;;;;;;;;;;;;;;;;;;5049869;28;19935;-69
2021/10/02 01:19:39;;;;;;;;;;;;;;;;;;5055882;28;19935;-69
2021/10/02 01:22:09;;;;;;;;;;;;;;;;;;5049655;28;19936;-69
2021/10/02 01:24:36;;;;;;;;;;;;;;;;;;5049929;28;19937;-68
2021/10/02 01:27:03;;;;;;;;;;;;;;;;;;5051341;28;20347;-69
2021/10/02 01:29:30;;;;;;;;;;;;;;;;;;5046735;28;20019;-69
2021/10/02 01:32:04;;;;;;;;;;;;;;;;;;5047773;28;19933;-69
2021/10/02 01:34:36;;;;;;;;;;;;;;;;;;5047222;28;19932;-69
2021/10/02 01:37:10;;;;;;;;;;;;;;;;;;5054430;28;20002;-69
2021/10/02 01:47:52;;;;;;;;;;;;;;;;;;5050894;28;20391;-70
2021/10/02 01:50:19;;;;;;;;;;;;;;;;;;5056947;28;19928;-69
2021/10/02 01:52:46;;;;;;;;;;;;;;;;;;5056294;28;20412;-71
2021/10/02 01:55:13;;;;;;;;;;;;;;;;;;5051458;28;19925;-70
2021/10/02 01:57:40;;;;;;;;;;;;;;;;;;5044758;28;19925;-70
2021/10/02 02:00:07;;;;;;;;;;;;;;;;;;5055692;28;19929;-69
2021/10/02 02:02:34;;;;;;;;;;;;;;;;;;5055287;28;19939;-70
2021/10/02 02:05:01;;;;;;;;;;;;;;;;;;5048665;28;20001;-69
2021/10/02 02:07:28;;;;;;;;;;;;;;;;;;5050598;28;19931;-70
2021/10/02 02:09:55;;;;;;;;;;;;;;;;;;5054197;28;19925;-71
2021/10/02 02:12:22;;;;;;;;;;;;;;;;;;5049121;28;19943;-70
2021/10/02 02:14:50;;;;;;;;;;;;;;;;;;5053288;28;19928;-70
2021/10/02 02:17:17;;;;;;;;;;;;;;;;;;5047047;28;19924;-69
2021/10/02 02:19:44;;;;;;;;;;;;;;;;;;5054380;28;20343;-69
2021/10/02 02:22:11;;;;;;;;;;;;;;;;;;5053458;28;19932;-69
2021/10/02 02:24:38;;;;;;;;;;;;;;;;;;5053092;28;19924;-69
2021/10/02 02:27:04;;;;;;;;;;;;;;;;;;5055002;28;19935;-69
2021/10/02 02:29:31;;;;;;;;;;;;;;;;;;5047516;28;20016;-70
2021/10/02 02:31:58;;;;;;;;;;;;;;;;;;5061329;28;19977;-69
2021/10/02 02:34:25;;;;;;;;;;;;;;;;;;5062466;28;19928;-70
2021/10/02 02:36:52;;;;;;;;;;;;;;;;;;5055774;28;20013;-69
2021/10/02 02:39:19;;;;;;;;;;;;;;;;;;5051519;28;19929;-69
2021/10/02 02:41:46;;;;;;;;;;;;;;;;;;5056082;28;19932;-70
2021/10/02 02:44:13;;;;;;;;;;;;;;;;;;5057844;28;19925;-71
2021/10/02 02:46:40;;;;;;;;;;;;;;;;;;5056338;28;20269;-69
2021/10/02 02:49:07;;;;;;;;;;;;;;;;;;5057655;28;19928;-69
2021/10/02 02:51:34;;;;;;;;;;;;;;;;;;5060221;28;19925;-70
2021/10/02 02:54:01;;;;;;;;;;;;;;;;;;5053127;28;19951;-69
2021/10/02 02:56:28;;;;;;;;;;;;;;;;;;5053735;28;19925;-69
2021/10/02 02:58:55;;;;;;;;;;;;;;;;;;5056104;28;19924;-69
2021/10/02 03:01:22;;;;;;;;;;;;;;;;;;5055509;28;19932;-69
2021/10/02 03:03:49;;;;;;;;;;;;;;;;;;5051957;28;20416;-69
2021/10/02 03:06:16;;;;;;;;;;;;;;;;;;5053260;28;19925;-69
2021/10/02 03:08:43;;;;;;;;;;;;;;;;;;5055636;28;20288;-70
2021/10/02 03:11:10;;;;;;;;;;;;;;;;;;5050575;28;19931;-70
2021/10/02 03:13:37;;;;;;;;;;;;;;;;;;5057151;28;19932;-70
2021/10/02 03:16:04;;;;;;;;;;;;;;;;;;5056653;28;20007;-70
2021/10/02 03:18:31;;;;;;;;;;;;;;;;;;5053074;28;19925;-70
2021/10/02 03:20:58;;;;;;;;;;;;;;;;;;5051697;28;20398;-70
2021/10/02 03:23:24;;;;;;;;;;;;;;;;;;5050873;28;19935;-70
2021/10/02 03:25:51;;;;;;;;;;;;;;;;;;5051422;28;19928;-70
2021/10/02 03:28:18;;;;;;;;;;;;;;;;;;5049097;28;20304;-70
2021/10/02 03:30:45;;;;;;;;;;;;;;;;;;5045107;28;19929;-70
2021/10/02 03:33:12;;;;;;;;;;;;;;;;;;5053420;28;19925;-69
2021/10/02 03:35:39;;;;;;;;;;;;;;;;;;5049470;28;20404;-69
2021/10/02 03:38:06;;;;;;;;;;;;;;;;;;5053250;28;19932;-68
2021/10/02 03:40:33;;;;;;;;;;;;;;;;;;5045477;28;20015;-68
2021/10/02 03:43:00;;;;;;;;;;;;;;;;;;5070889;22;19925;-62
2021/10/02 03:45:27;;;;;;;;;;;;;;;;;;5051912;28;19928;-61
2021/10/02 03:47:54;;;;;;;;;;;;;;;;;;5048821;28;20255;-62
2021/10/02 03:50:21;;;;;;;;;;;;;;;;;;5047440;28;19929;-61
2021/10/02 03:52:48;;;;;;;;;;;;;;;;;;5043624;28;19933;-62
2021/10/02 03:55:14;;;;;;;;;;;;;;;;;;5030234;28;19925;-62
2021/10/02 03:57:41;;;;;;;;;;;;;;;;;;5026799;28;19926;-61
2021/10/02 04:00:08;;;;;;;;;;;;;;;;;;5023904;28;20293;-62
2021/10/02 04:02:35;;;;;;;;;;;;;;;;;;5027337;28;20476;-62
2021/10/02 04:05:02;;;;;;;;;;;;;;;;;;5027898;28;19925;-62
2021/10/02 04:07:29;;;;;;;;;;;;;;;;;;5027621;28;19925;-62
2021/10/02 04:09:57;;;;;;;;;;;;;;;;;;5027705;28;20273;-66
2021/10/02 04:12:24;;;;;;;;;;;;;;;;;;5032238;28;19928;-61
2021/10/02 04:14:50;;;;;;;;;;;;;;;;;;5029746;28;19932;-64
2021/10/02 04:17:17;;;;;;;;;;;;;;;;;;5026410;28;20009;-64
2021/10/02 04:19:44;;;;;;;;;;;;;;;;;;5031263;28;19931;-62
2021/10/02 04:22:12;;;;;;;;;;;;;;;;;;5027949;28;19949;-63
2021/10/02 04:24:39;;;;;;;;;;;;;;;;;;5028260;28;19925;-62
2021/10/02 04:27:06;;;;;;;;;;;;;;;;;;5035352;28;19925;-63
2021/10/02 04:29:33;;;;;;;;;;;;;;;;;;5030511;28;19951;-63
2021/10/02 04:32:00;;;;;;;;;;;;;;;;;;5027835;28;21444;-63
2021/10/02 04:34:27;;;;;;;;;;;;;;;;;;5031296;28;19932;-62
2021/10/02 04:36:54;;;;;;;;;;;;;;;;;;5034380;28;20020;-62
2021/10/02 04:39:21;;;;;;;;;;;;;;;;;;5034659;28;20342;-62
2021/10/02 04:41:47;;;;;;;;;;;;;;;;;;5029947;28;19933;-62
2021/10/02 04:44:14;;;;;;;;;;;;;;;;;;5030433;28;19925;-62
2021/10/02 04:46:41;;;;;;;;;;;;;;;;;;5030830;28;19937;-62
2021/10/02 04:49:09;;;;;;;;;;;;;;;;;;5031885;28;19929;-61
2021/10/02 04:51:36;;;;;;;;;;;;;;;;;;5033540;28;19925;-62
2021/10/02 04:54:03;;;;;;;;;;;;;;;;;;5028244;28;20011;-62
2021/10/02 04:56:30;;;;;;;;;;;;;;;;;;5032699;28;20373;-63
2021/10/02 04:58:57;;;;;;;;;;;;;;;;;;5030584;28;20388;-62
2021/10/02 05:01:24;;;;;;;;;;;;;;;;;;5032805;28;19925;-63
2021/10/02 05:03:51;;;;;;;;;;;;;;;;;;5033775;28;19933;-63
2021/10/02 05:06:18;;;;;;;;;;;;;;;;;;5033751;28;19925;-64
2021/10/02 05:08:45;;;;;;;;;;;;;;;;;;5032554;28;20389;-62
2021/10/02 05:11:12;;;;;;;;;;;;;;;;;;5035516;28;19978;-62
2021/10/02 05:13:39;;;;;;;;;;;;;;;;;;5033479;28;19925;-63
2021/10/02 05:16:06;;;;;;;;;;;;;;;;;;5035691;28;20420;-63
2021/10/02 05:18:33;;;;;;;;;;;;;;;;;;5038217;28;19930;-63
2021/10/02 05:21:00;;;;;;;;;;;;;;;;;;5036242;28;19925;-63
2021/10/02 05:23:27;;;;;;;;;;;;;;;;;;5031878;28;19933;-63
2021/10/02 05:25:54;;;;;;;;;;;;;;;;;;5033455;28;19933;-62
2021/10/02 05:28:21;;;;;;;;;;;;;;;;;;5035431;28;19932;-63
2021/10/02 05:30:48;;;;;;;;;;;;;;;;;;5034263;28;19925;-63
2021/10/02 05:33:15;;;;;;;;;;;;;;;;;;5030279;28;19925;-63
2021/10/02 05:35:42;;;;;;;;;;;;;;;;;;5031397;28;19947;-63
2021/10/02 05:38:09;;;;;;;;;;;;;;;;;;5035831;28;20317;-63
2021/10/02 05:40:36;;;;;;;;;;;;;;;;;;5035185;28;19925;-63
2021/10/02 05:43:03;;;;;;;;;;;;;;;;;;5032295;28;19937;-63
2021/10/02 05:45:30;;;;;;;;;;;;;;;;;;5035732;28;19925;-67
2021/10/02 05:47:57;;;;;;;;;;;;;;;;;;5040374;28;19925;-63
2021/10/02 05:50:24;;;;;;;;;;;;;;;;;;5032459;28;19929;-63
2021/10/02 05:52:51;;;;;;;;;;;;;;;;;;5032966;28;19925;-63
2021/10/02 05:55:18;;;;;;;;;;;;;;;;;;5029549;28;20301;-63
2021/10/02 05:57:44;;;;;;;;;;;;;;;;;;5034644;28;20305;-63
2021/10/02 06:00:11;;;;;;;;;;;;;;;;;;5033547;28;20343;-63
2021/10/02 06:02:38;;;;;;;;;;;;;;;;;;5024467;28;19925;-63
2021/10/02 06:05:05;;;;;;;;;;;;;;;;;;5034807;28;19933;-63
2021/10/02 06:07:32;;;;;;;;;;;;;;;;;;5035227;28;19925;-63
2021/10/02 06:09:59;;;;;;;;;;;;;;;;;;5037366;28;19931;-63
2021/10/02 06:12:26;;;;;;;;;;;;;;;;;;5034022;28;19925;-62
2021/10/02 06:14:53;;;;;;;;;;;;;;;;;;5030679;28;20309;-62
2021/10/02 06:17:20;;;;;;;;;;;;;;;;;;5037486;28;20408;-63
2021/10/02 06:19:47;;;;;;;;;;;;;;;;;;5032521;28;19926;-63
2021/10/02 06:22:14;;;;;;;;;;;;;;;;;;5032456;28;19929;-63
2021/10/02 06:24:41;;;;;;;;;;;;;;;;;;5034677;28;19925;-63
2021/10/02 06:27:08;;;;;;;;;;;;;;;;;;5035961;28;20405;-63
2021/10/02 06:29:35;;;;;;;;;;;;;;;;;;5030022;28;19932;-63
2021/10/02 06:32:02;;;;;;;;;;;;;;;;;;5039018;28;19995;-63
2021/10/02 06:34:29;;;;;;;;;;;;;;;;;;5032935;28;20400;-63
2021/10/02 06:36:56;;;;;;;;;;;;;;;;;;5034905;28;19925;-63
2021/10/02 06:39:23;;;;;;;;;;;;;;;;;;5029829;28;19929;-63
2021/10/02 06:41:50;;;;;;;;;;;;;;;;;;5033280;28;20298;-63
2021/10/02 06:44:17;;;;;;;;;;;;;;;;;;5035360;28;19936;-63
2021/10/02 06:46:44;;;;;;;;;;;;;;;;;;5029847;28;19939;-63
2021/10/02 06:49:11;;;;;;;;;;;;;;;;;;5027291;28;19984;-63
2021/10/02 06:51:37;;;;;;;;;;;;;;;;;;5033847;28;19935;-63
2021/10/02 06:54:05;;;;;;;;;;;;;;;;;;5034553;28;19925;-63
2021/10/02 06:56:32;;;;;;;;;;;;;;;;;;5031850;28;19936;-63
2021/10/02 06:58:59;;;;;;;;;;;;;;;;;;5034198;28;19952;-63
2021/10/02 07:01:26;;;;;;;;;;;;;;;;;;5035140;28;20296;-63
2021/10/02 07:03:53;;;;;;;;;;;;;;;;;;5036434;28;19968;-63
2021/10/02 07:06:20;;;;;;;;;;;;;;;;;;5037543;28;20301;-63
2021/10/02 07:08:47;;;;;;;;;;;;;;;;;;5033317;28;19940;-63
2021/10/02 07:11:13;;;;;;;;;;;;;;;;;;5039818;28;20024;-63
2021/10/02 07:13:40;;;;;;;;;;;;;;;;;;5035964;28;19948;-63
2021/10/02 07:16:07;;;;;;;;;;;;;;;;;;5036542;28;20300;-65
2021/10/02 07:18:34;;;;;;;;;;;;;;;;;;5036692;28;20416;-63
2021/10/02 07:21:01;;;;;;;;;;;;;;;;;;5035828;28;19932;-63
2021/10/02 07:23:29;;;;;;;;;;;;;;;;;;5037535;28;20012;-63
2021/10/02 07:25:56;;;;;;;;;;;;;;;;;;5033512;28;19979;-63
2021/10/02 07:28:23;;;;;;;;;;;;;;;;;;5042582;28;19968;-63
2021/10/02 07:30:50;;;;;;;;;;;;;;;;;;5043271;28;19988;-63
2021/10/02 07:33:17;;;;;;;;;;;;;;;;;;5045201;28;19931;-63
2021/10/02 07:35:44;;;;;;;;;;;;;;;;;;5040311;28;19929;-63
2021/10/02 07:38:11;;;;;;;;;;;;;;;;;;5040065;28;20381;-63
2021/10/02 07:40:38;;;;;;;;;;;;;;;;;;5045003;28;19925;-63
2021/10/02 07:43:05;;;;;;;;;;;;;;;;;;5040844;28;19925;-64
2021/10/02 07:45:32;;;;;;;;;;;;;;;;;;5041556;28;19932;-63
2021/10/02 07:47:59;;;;;;;;;;;;;;;;;;5041916;28;19925;-64
2021/10/02 07:50:26;;;;;;;;;;;;;;;;;;5035708;28;19925;-63
2021/10/02 07:52:52;;;;;;;;;;;;;;;;;;5042104;28;19952;-63
2021/10/02 07:55:19;;;;;;;;;;;;;;;;;;5040891;28;19932;-63
2021/10/02 07:57:47;;;;;;;;;;;;;;;;;;5040512;28;19931;-63
2021/10/02 08:00:14;;;;;;;;;;;;;;;;;;5040105;28;19933;-63
2021/10/02 08:02:41;;;;;;;;;;;;;;;;;;5044331;28;20411;-63
2021/10/02 08:05:08;;;;;;;;;;;;;;;;;;5037019;28;19926;-63
2021/10/02 08:07:35;;;;;;;;;;;;;;;;;;5039391;28;19925;-62
2021/10/02 08:10:02;;;;;;;;;;;;;;;;;;5048593;28;19925;-63
2021/10/02 08:12:31;;;;;;;;;;;;;;;;;;5048316;28;19925;-63
2021/10/02 08:14:58;;;;;;;;;;;;;;;;;;5040301;28;19925;-63
2021/10/02 08:17:26;;;;;;;;;;;;;;;;;;5039063;28;20055;-63
2021/10/02 08:19:55;;;;;;;;;;;;;;;;;;5040885;28;20123;-63
2021/10/02 08:22:22;;;;;;;;;;;;;;;;;;5047129;28;20028;-64
2021/10/02 08:24:49;;;;;;;;;;;;;;;;;;5035927;28;19939;-63
2021/10/02 08:27:16;;;;;;;;;;;;;;;;;;5039342;28;19926;-63
2021/10/02 08:29:43;;;;;;;;;;;;;;;;;;5046566;28;19925;-63
2021/10/02 08:32:10;;;;;;;;;;;;;;;;;;5035693;28;19929;-63
2021/10/02 08:34:36;;;;;;;;;;;;;;;;;;5042837;28;19929;-63
2021/10/02 08:37:03;;;;;;;;;;;;;;;;;;5036378;28;19936;-63
2021/10/02 08:39:30;;;;;;;;;;;;;;;;;;5037251;28;19925;-63
2021/10/02 08:41:57;;;;;;;;;;;;;;;;;;5036156;28;19939;-63
2021/10/02 08:44:24;;;;;;;;;;;;;;;;;;5038670;28;19929;-63
2021/10/02 08:46:51;;;;;;;;;;;;;;;;;;5037663;28;19968;-62
2021/10/02 08:49:18;;;;;;;;;;;;;;;;;;5040406;28;20313;-62
2021/10/02 08:51:48;;;;;;;;;;;;;;;;;;5040131;28;19932;-63
2021/10/02 08:54:14;;;;;;;;;;;;;;;;;;5038580;28;19981;-63
2021/10/02 08:56:42;;;;;;;;;;;;;;;;;;5043615;28;19929;-63
2021/10/02 08:59:09;;;;;;;;;;;;;;;;;;5039668;28;20344;-63
2021/10/02 09:01:36;;;;;;;;;;;;;;;;;;5039039;28;19925;-63
2021/10/02 09:04:03;;;;;;;;;;;;;;;;;;5044098;28;20289;-63
2021/10/02 09:06:30;;;;;;;;;;;;;;;;;;5043536;28;19931;-62
2021/10/02 09:08:57;;;;;;;;;;;;;;;;;;5042358;28;19929;-63
2021/10/02 09:11:24;;;;;;;;;;;;;;;;;;5040760;28;19992;-63
2021/10/02 09:13:51;;;;;;;;;;;;;;;;;;5033915;28;19959;-63
2021/10/02 09:16:18;;;;;;;;;;;;;;;;;;5038989;28;19931;-62
2021/10/02 09:18:45;;;;;;;;;;;;;;;;;;5036183;28;20392;-62
2021/10/02 09:21:12;;;;;;;;;;;;;;;;;;5044987;28;19980;-63
2021/10/02 09:23:39;;;;;;;;;;;;;;;;;;5039331;28;19931;-63
2021/10/02 09:26:06;;;;;;;;;;;;;;;;;;5043014;28;19965;-62
2021/10/02 09:28:33;;;;;;;;;;;;;;;;;;5039494;28;19939;-63
2021/10/02 09:31:00;;;;;;;;;;;;;;;;;;5044288;28;19925;-62
2021/10/02 09:33:27;;;;;;;;;;;;;;;;;;5040926;28;19948;-63
2021/10/02 09:35:54;;;;;;;;;;;;;;;;;;5044505;28;20416;-63
2021/10/02 09:38:21;;;;;;;;;;;;;;;;;;5040257;28;19929;-63
2021/10/02 09:40:48;;;;;;;;;;;;;;;;;;5030615;28;19972;-63
2021/10/02 09:43:15;;;;;;;;;;;;;;;;;;5051687;22;20303;-65
2021/10/02 09:45:42;;;;;;;;;;;;;;;;;;5037018;28;19955;-65
2021/10/02 09:48:09;;;;;;;;;;;;;;;;;;5039190;28;20551;-65
2021/10/02 09:50:36;;;;;;;;;;;;;;;;;;5038863;28;19925;-65
2021/10/02 09:53:03;;;;;;;;;;;;;;;;;;5037915;28;19972;-66
2021/10/02 09:55:30;;;;;;;;;;;;;;;;;;5029085;28;19936;-65
2021/10/02 09:57:57;;;;;;;;;;;;;;;;;;5038318;28;19979;-66
2021/10/02 10:00:26;;;;;;;;;;;;;;;;;;5034838;28;19936;-66
2021/10/02 10:02:53;;;;;;;;;;;;;;;;;;5032018;28;20369;-66
2021/10/02 10:05:20;;;;;;;;;;;;;;;;;;5029671;28;19940;-65
2021/10/02 10:07:47;;;;;;;;;;;;;;;;;;5031010;28;19940;-64
2021/10/02 10:10:14;;;;;;;;;;;;;;;;;;5034475;28;19925;-64
2021/10/02 10:12:41;;;;;;;;;;;;;;;;;;5037456;28;19925;-65
2021/10/02 10:15:08;;;;;;;;;;;;;;;;;;5036046;28;20144;-64
2021/10/02 10:17:35;;;;;;;;;;;;;;;;;;5033136;28;19963;-64
2021/10/02 10:20:05;;;;;;;;;;;;;;;;;;5031370;28;20381;-64
2021/10/02 10:22:32;;;;;;;;;;;;;;;;;;5025182;28;19925;-63
2021/10/02 10:24:58;;;;;;;;;;;;;;;;;;5028495;28;19959;-63
2021/10/02 10:27:25;;;;;;;;;;;;;;;;;;5037190;28;19925;-63
2021/10/02 10:29:52;;;;;;;;;;;;;;;;;;5035063;28;20416;-63
2021/10/02 10:32:19;;;;;;;;;;;;;;;;;;5040587;28;19932;-63
2021/10/02 10:34:46;;;;;;;;;;;;;;;;;;5039525;28;20023;-63
2021/10/02 10:37:13;;;;;;;;;;;;;;;;;;5036674;28;20292;-63
2021/10/02 10:39:40;;;;;;;;;;;;;;;;;;5036160;28;19948;-63
2021/10/02 10:42:07;;;;;;;;;;;;;;;;;;5036305;28;19925;-63
2021/10/02 10:44:34;;;;;;;;;;;;;;;;;;5027467;28;19936;-63
2021/10/02 10:47:01;;;;;;;;;;;;;;;;;;5027204;28;19952;-63
2021/10/02 10:49:28;;;;;;;;;;;;;;;;;;5029546;28;19925;-64
2021/10/02 10:51:55;;;;;;;;;;;;;;;;;;5028836;28;19929;-63
2021/10/02 10:54:22;;;;;;;;;;;;;;;;;;5030297;28;19932;-63
2021/10/02 10:56:49;;;;;;;;;;;;;;;;;;5029663;28;20278;-63
2021/10/02 10:59:18;;;;;;;;;;;;;;;;;;5024119;28;19944;-63
2021/10/02 11:01:45;;;;;;;;;;;;;;;;;;5028627;28;20015;-63
2021/10/02 11:04:12;;;;;;;;;;;;;;;;;;5031773;28;19931;-63
2021/10/02 11:06:39;;;;;;;;;;;;;;;;;;5031381;28;19925;-63
2021/10/02 11:09:06;;;;;;;;;;;;;;;;;;5031095;28;19940;-63
2021/10/02 11:11:33;;;;;;;;;;;;;;;;;;5031509;28;19925;-63
2021/10/02 11:14:00;;;;;;;;;;;;;;;;;;5031328;28;19947;-63
2021/10/02 11:16:27;;;;;;;;;;;;;;;;;;5028605;28;19932;-63
2021/10/02 11:18:54;;;;;;;;;;;;;;;;;;5024157;28;19925;-63
2021/10/02 11:21:21;;;;;;;;;;;;;;;;;;5024384;28;19936;-63
2021/10/02 11:23:48;;;;;;;;;;;;;;;;;;5024134;28;19983;-63
2021/10/02 11:26:15;;;;;;;;;;;;;;;;;;5023623;28;19933;-63
2021/10/02 11:28:42;;;;;;;;;;;;;;;;;;5022360;28;19929;-63
2021/10/02 11:31:09;;;;;;;;;;;;;;;;;;5022871;28;19926;-63
2021/10/02 11:33:36;;;;;;;;;;;;;;;;;;5023255;28;20401;-63
2021/10/02 11:36:03;;;;;;;;;;;;;;;;;;5022109;28;20028;-63
2021/10/02 11:38:30;;;;;;;;;;;;;;;;;;5023897;28;19940;-63
2021/10/02 11:40:57;;;;;;;;;;;;;;;;;;5024269;28;20281;-63
2021/10/02 11:43:24;;;;;;;;;;;;;;;;;;5023534;28;19936;-63
2021/10/02 11:45:51;;;;;;;;;;;;;;;;;;5024658;28;19996;-64
2021/10/02 11:48:18;;;;;;;;;;;;;;;;;;5024561;28;19925;-64
2021/10/02 11:50:45;;;;;;;;;;;;;;;;;;5025144;28;20328;-63
2021/10/02 11:53:12;;;;;;;;;;;;;;;;;;5024301;28;19934;-63
2021/10/02 11:55:39;;;;;;;;;;;;;;;;;;5022630;28;19948;-62
2021/10/02 11:58:06;;;;;;;;;;;;;;;;;;5021519;28;19925;-63
2021/10/02 12:00:33;;;;;;;;;;;;;;;;;;5026514;28;19931;-63
2021/10/02 12:03:00;;;;;;;;;;;;;;;;;;5028891;28;19925;-63
2021/10/02 12:05:27;;;;;;;;;;;;;;;;;;5028412;28;19932;-63
2021/10/02 12:07:56;;;;;;;;;;;;;;;;;;5026431;28;19933;-63
2021/10/02 12:10:23;;;;;;;;;;;;;;;;;;5021559;28;19936;-63
2021/10/02 12:12:50;;;;;;;;;;;;;;;;;;5029899;28;19925;-63
2021/10/02 12:15:17;;;;;;;;;;;;;;;;;;5029493;28;19925;-63
2021/10/02 12:17:44;;;;;;;;;;;;;;;;;;5026075;28;19941;-63
2021/10/02 12:20:11;;;;;;;;;;;;;;;;;;5028675;28;19945;-63
2021/10/02 12:22:38;;;;;;;;;;;;;;;;;;5028641;28;19944;-64
2021/10/02 12:25:05;;;;;;;;;;;;;;;;;;5026863;28;19929;-63
2021/10/02 12:27:34;;;;;;;;;;;;;;;;;;5025478;28;19933;-63
2021/10/02 12:30:01;;;;;;;;;;;;;;;;;;5021156;28;19925;-63
2021/10/02 12:32:30;;;;;;;;;;;;;;;;;;5022964;28;19925;-63
2021/10/02 12:34:57;;;;;;;;;;;;;;;;;;5022711;28;19925;-63
2021/10/02 12:37:23;;;;;;;;;;;;;;;;;;5024055;28;19929;-63
2021/10/02 12:39:50;;;;;;;;;;;;;;;;;;5023304;28;19929;-63
2021/10/02 12:42:17;;;;;;;;;;;;;;;;;;5023985;28;20004;-66
2021/10/02 12:44:44;;;;;;;;;;;;;;;;;;5022748;28;19932;-64
2021/10/02 12:47:11;;;;;;;;;;;;;;;;;;5026470;28;19955;-64
2021/10/02 12:49:38;;;;;;;;;;;;;;;;;;5025714;28;19929;-63
2021/10/02 12:52:05;;;;;;;;;;;;;;;;;;5025783;28;19929;-63
2021/10/02 12:54:32;;;;;;;;;;;;;;;;;;5026185;28;20270;-63
2021/10/02 12:56:59;;;;;;;;;;;;;;;;;;5026269;28;19932;-63
2021/10/02 12:59:26;;;;;;;;;;;;;;;;;;5027398;28;19937;-64
2021/10/02 13:01:53;;;;;;;;;;;;;;;;;;5028167;28;20403;-64
2021/10/02 13:04:20;;;;;;;;;;;;;;;;;;5029559;28;19944;-63
2021/10/02 13:06:47;;;;;;;;;;;;;;;;;;5026651;28;19925;-64
2021/10/02 13:09:14;;;;;;;;;;;;;;;;;;5026691;28;19925;-64
2021/10/02 13:11:41;;;;;;;;;;;;;;;;;;5030209;28;19933;-64
2021/10/02 13:14:08;;;;;;;;;;;;;;;;;;5024276;28;20431;-64
2021/10/02 13:16:35;;;;;;;;;;;;;;;;;;5025020;28;19933;-64
2021/10/02 13:19:02;;;;;;;;;;;;;;;;;;5024462;28;20012;-63
2021/10/02 13:21:29;;;;;;;;;;;;;;;;;;5025964;28;20516;-63
2021/10/02 13:23:56;;;;;;;;;;;;;;;;;;5025379;28;19933;-63
2021/10/02 13:26:23;;;;;;;;;;;;;;;;;;5028710;28;19925;-64
2021/10/02 13:28:50;;;;;;;;;;;;;;;;;;5027961;28;19925;-63
2021/10/02 13:31:17;;;;;;;;;;;;;;;;;;5025100;28;19932;-63
2021/10/02 13:33:44;;;;;;;;;;;;;;;;;;5028818;28;19925;-63
2021/10/02 13:36:11;;;;;;;;;;;;;;;;;;5026177;28;19933;-64
2021/10/02 13:38:38;;;;;;;;;;;;;;;;;;5033282;28;19925;-64
2021/10/02 13:41:05;;;;;;;;;;;;;;;;;;5027657;28;19925;-63
2021/10/02 13:43:32;;;;;;;;;;;;;;;;;;5028679;28;19932;-63
2021/10/02 13:45:59;;;;;;;;;;;;;;;;;;5028086;28;19955;-64
2021/10/02 13:48:26;;;;;;;;;;;;;;;;;;5026560;28;20698;-64
2021/10/02 13:50:53;;;;;;;;;;;;;;;;;;5023216;28;19924;-64
2021/10/02 13:53:20;;;;;;;;;;;;;;;;;;5027265;28;20389;-64
2021/10/02 13:55:47;;;;;;;;;;;;;;;;;;5024865;28;19955;-63
2021/10/02 13:58:14;;;;;;;;;;;;;;;;;;5025993;28;19929;-63
2021/10/02 14:00:41;;;;;;;;;;;;;;;;;;5025744;28;20031;-64
2021/10/02 14:03:08;;;;;;;;;;;;;;;;;;5022902;28;20024;-64
2021/10/02 14:05:37;;;;;;;;;;;;;;;;;;5024745;28;19929;-64
2021/10/02 14:08:04;;;;;;;;;;;;;;;;;;5026955;28;19931;-63
2021/10/02 14:10:31;;;;;;;;;;;;;;;;;;5029849;28;19929;-63
2021/10/02 14:12:58;;;;;;;;;;;;;;;;;;5025915;28;20020;-63
2021/10/02 14:15:25;;;;;;;;;;;;;;;;;;5023576;28;19932;-63
2021/10/02 14:17:52;;;;;;;;;;;;;;;;;;5026523;28;19951;-64
2021/10/02 14:20:19;;;;;;;;;;;;;;;;;;5024730;28;19933;-64
2021/10/02 14:22:46;;;;;;;;;;;;;;;;;;5028250;28;19933;-64
2021/10/02 14:25:13;;;;;;;;;;;;;;;;;;5024138;28;19925;-64
2021/10/02 14:27:40;;;;;;;;;;;;;;;;;;5025695;28;21961;-64
2021/10/02 14:30:07;;;;;;;;;;;;;;;;;;5024912;28;19925;-64
2021/10/02 14:32:34;;;;;;;;;;;;;;;;;;5029103;28;19925;-64
2021/10/02 14:35:01;;;;;;;;;;;;;;;;;;5024168;28;20548;-64
2021/10/02 14:37:28;;;;;;;;;;;;;;;;;;5024332;28;19932;-64
2021/10/02 14:39:55;;;;;;;;;;;;;;;;;;5024068;28;19933;-63
2021/10/02 14:42:22;;;;;;;;;;;;;;;;;;5024851;28;20297;-63
2021/10/02 14:44:49;;;;;;;;;;;;;;;;;;5025814;28;19926;-63
2021/10/02 14:47:16;;;;;;;;;;;;;;;;;;5023884;28;19933;-63
2021/10/02 14:49:43;;;;;;;;;;;;;;;;;;5022963;28;19929;-63
2021/10/02 14:52:10;;;;;;;;;;;;;;;;;;5025531;28;19932;-63
2021/10/02 14:54:37;;;;;;;;;;;;;;;;;;5022678;28;19931;-64
2021/10/02 14:57:04;;;;;;;;;;;;;;;;;;5022970;28;19933;-64
2021/10/02 14:59:31;;;;;;;;;;;;;;;;;;5024033;28;19986;-63
2021/10/02 15:01:58;;;;;;;;;;;;;;;;;;5023552;28;19925;-63
2021/10/02 15:04:25;;;;;;;;;;;;;;;;;;5021434;28;19944;-63
2021/10/02 15:06:52;;;;;;;;;;;;;;;;;;5019814;28;19929;-63
2021/10/02 15:09:19;;;;;;;;;;;;;;;;;;5026846;28;19925;-64
2021/10/02 15:11:46;;;;;;;;;;;;;;;;;;5033223;28;19955;-64
2021/10/02 15:14:13;;;;;;;;;;;;;;;;;;5034070;28;20016;-64
2021/10/02 15:16:40;;;;;;;;;;;;;;;;;;5029973;28;19933;-64
2021/10/02 15:19:07;;;;;;;;;;;;;;;;;;5036513;28;19925;-64
2021/10/02 15:21:34;;;;;;;;;;;;;;;;;;5037963;28;20376;-64
2021/10/02 15:24:02;;;;;;;;;;;;;;;;;;5047406;28;19933;-64
2021/10/02 15:26:29;;;;;;;;;;;;;;;;;;5044346;28;19972;-64
2021/10/02 15:28:56;;;;;;;;;;;;;;;;;;5035250;28;19932;-64
2021/10/02 15:31:23;;;;;;;;;;;;;;;;;;5034802;28;19956;-63
2021/10/02 15:33:50;;;;;;;;;;;;;;;;;;5037207;28;19926;-64
2021/10/02 15:36:17;;;;;;;;;;;;;;;;;;5032228;28;19925;-64
2021/10/02 15:38:44;;;;;;;;;;;;;;;;;;5038314;28;20383;-65
2021/10/02 15:41:11;;;;;;;;;;;;;;;;;;5035394;28;19933;-65
2021/10/02 15:43:38;;;;;;;;;;;;;;;;;;5062402;22;20410;-64
2021/10/02 15:46:07;;;;;;;;;;;;;;;;;;5050624;28;19925;-64
2021/10/02 15:48:34;;;;;;;;;;;;;;;;;;5048692;28;19955;-65
2021/10/02 15:51:03;;;;;;;;;;;;;;;;;;5047125;28;20042;-62
2021/10/02 15:53:30;;;;;;;;;;;;;;;;;;5046609;28;19935;-61
2021/10/02 15:55:57;;;;;;;;;;;;;;;;;;5049074;28;20411;-62
2021/10/02 15:58:24;;;;;;;;;;;;;;;;;;5049786;28;19925;-62
2021/10/02 16:00:51;;;;;;;;;;;;;;;;;;5049606;28;19925;-62
2021/10/02 16:03:18;;;;;;;;;;;;;;;;;;5051129;28;19987;-63
2021/10/02 16:05:45;;;;;;;;;;;;;;;;;;5051379;28;20471;-63
2021/10/02 16:08:12;;;;;;;;;;;;;;;;;;5048502;28;19925;-63
2021/10/02 16:10:39;;;;;;;;;;;;;;;;;;5048638;28;19935;-62
2021/10/02 16:13:06;;;;;;;;;;;;;;;;;;5050274;28;20406;-63
2021/10/02 16:15:34;;;;;;;;;;;;;;;;;;5047139;28;20028;-62
2021/10/02 16:18:01;;;;;;;;;;;;;;;;;;5049249;28;20377;-63
2021/10/02 16:20:28;;;;;;;;;;;;;;;;;;5048649;28;19928;-63
2021/10/02 16:22:55;;;;;;;;;;;;;;;;;;5050727;28;19935;-63
2021/10/02 16:25:22;;;;;;;;;;;;;;;;;;5050106;28;20000;-62
2021/10/02 16:27:49;;;;;;;;;;;;;;;;;;5049497;28;19925;-62
2021/10/02 16:30:16;;;;;;;;;;;;;;;;;;5052259;28;19929;-62
2021/10/02 16:32:43;;;;;;;;;;;;;;;;;;5054889;28;19967;-63
2021/10/02 16:35:10;;;;;;;;;;;;;;;;;;5054169;28;20007;-64
2021/10/02 16:37:37;;;;;;;;;;;;;;;;;;5052770;28;19925;-65
2021/10/02 16:40:05;;;;;;;;;;;;;;;;;;5053984;28;20423;-64
2021/10/02 16:42:32;;;;;;;;;;;;;;;;;;5055208;28;20335;-64
2021/10/02 16:44:59;;;;;;;;;;;;;;;;;;5058189;28;20007;-63
2021/10/02 16:47:25;;;;;;;;;;;;;;;;;;5055522;28;20388;-64
2021/10/02 16:49:52;;;;;;;;;;;;;;;;;;5056185;28;20401;-64
2021/10/02 16:52:20;;;;;;;;;;;;;;;;;;5056282;28;20328;-64
2021/10/02 16:54:47;;;;;;;;;;;;;;;;;;5055328;28;19933;-64
2021/10/02 16:57:14;;;;;;;;;;;;;;;;;;5056174;28;20054;-64
2021/10/02 16:59:42;;;;;;;;;;;;;;;;;;5053436;28;19928;-63
2021/10/02 17:02:09;;;;;;;;;;;;;;;;;;5051864;28;20304;-63
2021/10/02 17:04:37;;;;;;;;;;;;;;;;;;5053608;28;20023;-63
2021/10/02 17:07:05;;;;;;;;;;;;;;;;;;5052356;28;19924;-63
2021/10/02 17:09:32;;;;;;;;;;;;;;;;;;5052924;28;19925;-64
2021/10/02 17:11:59;;;;;;;;;;;;;;;;;;5051814;28;19925;-63
2021/10/02 17:14:26;;;;;;;;;;;;;;;;;;5054313;28;19935;-64
2021/10/02 17:16:53;;;;;;;;;;;;;;;;;;5058469;28;19925;-63
2021/10/02 17:19:20;;;;;;;;;;;;;;;;;;5054106;28;20650;-64
2021/10/02 17:21:47;;;;;;;;;;;;;;;;;;5051866;28;19925;-63
2021/10/02 17:24:14;;;;;;;;;;;;;;;;;;5054818;28;19931;-63
2021/10/02 17:26:41;;;;;;;;;;;;;;;;;;5055734;28;19924;-63
2021/10/02 17:29:08;;;;;;;;;;;;;;;;;;5054032;28;19929;-63
2021/10/02 17:31:35;;;;;;;;;;;;;;;;;;5053348;28;19929;-64
2021/10/02 17:34:02;;;;;;;;;;;;;;;;;;5052157;28;19976;-62